Time;durP1;ratioP1;P1;durP2;ratioP2;P2;SDS_P1;SDS_P2;PMS_P1;PMS_P2;Temp;Humidity;BMP_temperature;BMP_pressure;BME280_temperature;BME280_humidity;BME280_pressure;Samples;Min_cycle;Max_cycle;Signal;HPM_P1;HPM_P2
2021/01/25 00:01:17;;;;;;;3.70;2.38;;;;;;;3.66;73.43;98253.25;5095094;28;20020;-67
2021/01/25 00:03:43;;;;;;;3.63;2.40;;;;;;;3.70;74.24;98257.56;5076536;28;20020;-65
2021/01/25 00:06:08;;;;;;;2.45;2.03;;;;;;;3.75;74.02;98261.88;5094976;28;20024;-59
2021/01/25 00:08:34;;;;;;;3.00;2.20;;;;;;;3.76;73.50;98262.69;5094864;28;20412;-60
2021/01/25 00:10:59;;;;;;;2.50;2.17;;;;;;;3.69;74.25;98269.09;5094971;28;20035;-59
2021/01/25 00:13:24;;;;;;;3.25;1.88;;;;;;;3.58;74.23;98262.84;5095588;28;20403;-59
2021/01/25 00:15:50;;;;;;;3.10;2.28;;;;;;;3.47;74.33;98273.19;5098337;28;20020;-57
2021/01/25 00:18:16;;;;;;;2.65;2.45;;;;;;;3.44;74.65;98268.47;5098017;28;20426;-59
2021/01/25 00:20:42;;;;;;;2.83;2.17;;;;;;;3.41;75.52;98270.88;5097997;28;20028;-58
2021/01/25 00:23:07;;;;;;;3.45;2.47;;;;;;;3.39;75.20;98272.47;5098355;28;20023;-58
2021/01/25 00:25:32;;;;;;;3.47;2.13;;;;;;;3.40;75.53;98285.94;5098445;28;20325;-58
2021/01/25 00:27:58;;;;;;;2.38;2.08;;;;;;;3.46;75.17;98296.63;5097922;28;20066;-63
2021/01/25 00:30:23;;;;;;;3.53;2.78;;;;;;;3.53;75.63;98294.56;5098268;28;20016;-69
2021/01/25 00:32:49;;;;;;;3.40;2.55;;;;;;;3.57;75.42;98300.94;5097865;28;20027;-69
2021/01/25 00:35:14;;;;;;;4.90;2.92;;;;;;;3.58;74.89;98310.06;5079913;28;20322;-69
2021/01/25 00:37:40;;;;;;;8.10;2.88;;;;;;;3.56;75.07;98310.47;5097901;28;20364;-69
2021/01/25 00:40:06;;;;;;;4.15;3.00;;;;;;;3.47;75.33;98312.88;5097707;28;20024;-69
2021/01/25 00:42:32;;;;;;;4.25;2.55;;;;;;;3.49;75.32;98309.69;5098200;28;20020;-70
2021/01/25 00:44:58;;;;;;;4.72;2.70;;;;;;;3.53;75.48;98316.81;5097316;28;20048;-65
2021/01/25 00:47:23;;;;;;;4.40;3.13;;;;;;;3.42;75.47;98321.63;5097903;28;20578;-59
2021/01/25 00:49:49;;;;;;;4.32;2.83;;;;;;;3.33;75.33;98330.41;5097787;28;20032;-66
2021/01/25 00:52:14;;;;;;;3.33;2.92;;;;;;;3.40;76.22;98321.25;5097632;28;20016;-56
2021/01/25 00:54:39;;;;;;;4.18;3.05;;;;;;;3.31;76.08;98313.38;5097929;28;20023;-65
2021/01/25 00:57:05;;;;;;;4.97;3.05;;;;;;;3.29;75.96;98315.75;5097395;28;20069;-58
2021/01/25 00:59:30;;;;;;;4.68;3.10;;;;;;;3.46;76.13;98316.06;5097500;28;20020;-60
2021/01/25 01:01:56;;;;;;;4.10;2.60;;;;;;;3.55;75.85;98319.16;5097134;28;20036;-62
2021/01/25 01:04:21;;;;;;;3.05;2.40;;;;;;;3.47;75.91;98323.19;5097606;28;20024;-60
2021/01/25 01:06:47;;;;;;;3.90;2.58;;;;;;;3.42;75.92;98327.97;5097178;28;20053;-66
2021/01/25 01:09:12;;;;;;;5.45;2.58;;;;;;;3.45;75.95;98326.38;5097389;28;20069;-62
2021/01/25 01:11:37;;;;;;;3.75;1.90;;;;;;;3.46;75.83;98327.16;5097315;28;20024;-59
2021/01/25 01:14:03;;;;;;;3.80;2.00;;;;;;;3.40;76.25;98330.38;5097191;28;20022;-67
2021/01/25 01:16:28;;;;;;;3.90;2.13;;;;;;;3.34;76.40;98332.00;5097024;28;20396;-66
2021/01/25 01:18:54;;;;;;;2.88;2.30;;;;;;;3.26;75.83;98330.44;5097002;28;20032;-68
2021/01/25 01:21:19;;;;;;;2.80;2.50;;;;;;;3.27;76.71;98314.56;5097273;28;20019;-60
2021/01/25 01:23:44;;;;;;;2.65;2.15;;;;;;;3.26;76.48;98324.88;5097157;28;20027;-58
2021/01/25 01:26:10;;;;;;;2.67;2.15;;;;;;;3.21;76.49;98328.06;5096698;28;20024;-63
2021/01/25 01:28:35;;;;;;;3.55;2.08;;;;;;;3.13;76.34;98325.75;5097201;28;20103;-65
2021/01/25 01:31:00;;;;;;;2.92;2.20;;;;;;;3.10;76.40;98332.91;5096634;28;20111;-60
2021/01/25 01:33:26;;;;;;;2.83;2.13;;;;;;;3.09;77.00;98336.88;5097000;28;20020;-64
2021/01/25 01:35:51;;;;;;;2.17;1.98;;;;;;;3.08;76.92;98332.50;5097256;28;20024;-57
2021/01/25 01:38:16;;;;;;;2.63;1.77;;;;;;;3.05;76.98;98336.09;5096652;28;20048;-66
2021/01/25 01:40:41;;;;;;;2.10;1.92;;;;;;;3.09;76.81;98334.88;5078848;28;20372;-63
2021/01/25 01:43:07;;;;;;;2.15;1.85;;;;;;;3.14;77.50;98317.00;5096692;28;20028;-58
2021/01/25 01:45:32;;;;;;;3.17;2.20;;;;;;;3.22;77.20;98323.31;5096488;28;20040;-59
2021/01/25 01:47:58;;;;;;;4.18;2.40;;;;;;;3.31;76.97;98320.91;5096509;28;20032;-56
2021/01/25 01:50:24;;;;;;;3.03;2.08;;;;;;;3.31;76.94;98321.69;5093799;28;20103;-59
2021/01/25 01:52:49;;;;;;;2.35;2.13;;;;;;;3.31;76.84;98327.25;5091782;28;20134;-65
2021/01/25 01:55:15;;;;;;;2.38;1.90;;;;;;;3.40;76.32;98329.59;5096173;28;20092;-62
2021/01/25 01:57:41;;;;;;;2.33;2.08;;;;;;;3.48;75.61;98333.09;5096660;28;20036;-59
2021/01/25 02:00:07;;;;;;;2.95;2.13;;;;;;;3.52;75.40;98343.00;5096067;28;20107;-58
2021/01/25 02:02:33;;;;;;;2.13;1.85;;;;;;;3.48;76.08;98358.88;5096425;28;20036;-58
2021/01/25 02:04:58;;;;;;;3.05;1.90;;;;;;;3.43;75.63;98348.22;5096153;28;20161;-67
2021/01/25 02:07:25;;;;;;;1.80;1.70;;;;;;;3.49;76.12;98338.25;5096532;28;20409;-57
2021/01/25 02:09:52;;;;;;;2.67;2.38;;;;;;;3.46;76.10;98346.59;5096092;28;20023;-55
2021/01/25 02:12:19;;;;;;;2.10;1.88;;;;;;;3.41;75.23;98351.38;5096191;28;20330;-59
2021/01/25 02:14:46;;;;;;;2.35;2.15;;;;;;;3.38;76.58;98340.31;5095863;28;20057;-59
2021/01/25 02:17:13;;;;;;;2.20;2.00;;;;;;;3.41;76.01;98342.28;5096184;28;20016;-63
2021/01/25 02:20:01;;;;;;;2.00;1.80;;;;;;;3.45;75.78;98348.59;5094890;28;20032;-59
2021/01/25 02:22:35;;;;;;;1.90;1.80;;;;;;;3.52;75.30;98358.88;5084599;28;20122;-63
2021/01/25 02:25:07;;;;;;;2.53;2.10;;;;;;;3.52;75.57;98356.09;5077820;28;20084;-56
2021/01/25 02:27:33;;;;;;;2.60;2.03;;;;;;;3.47;75.25;98356.53;5096181;28;20019;-58
2021/01/25 02:29:59;;;;;;;3.08;2.40;;;;;;;3.36;75.58;98351.81;5095675;28;20055;-58
2021/01/25 02:32:26;;;;;;;3.33;2.30;;;;;;;3.29;75.71;98351.84;5082006;28;20048;-70
2021/01/25 02:34:53;;;;;;;3.50;2.00;;;;;;;3.37;75.90;98361.72;5096321;28;20031;-62
2021/01/25 02:37:20;;;;;;;3.08;2.78;;;;;;;3.34;75.75;98358.97;5095077;28;20407;-58
2021/01/25 02:39:46;;;;;;;3.25;2.35;;;;;;;3.31;76.20;98366.13;5095976;28;20031;-58
2021/01/25 02:42:12;;;;;;;3.13;2.70;;;;;;;3.31;76.17;98365.34;5095718;28;20113;-58
2021/01/25 02:44:38;;;;;;;3.08;2.30;;;;;;;3.28;76.30;98364.13;5095340;28;20425;-67
2021/01/25 02:47:04;;;;;;;2.72;2.50;;;;;;;3.31;75.89;98359.78;5095593;28;20081;-60
2021/01/25 02:49:30;;;;;;;3.38;2.50;;;;;;;3.26;76.09;98349.88;5095841;28;20354;-58
2021/01/25 02:51:55;;;;;;;2.83;2.40;;;;;;;3.27;76.15;98370.88;5095626;28;20028;-65
2021/01/25 02:54:21;;;;;;;3.65;2.63;;;;;;;3.33;76.20;98369.28;5095430;28;20023;-59
2021/01/25 02:56:48;;;;;;;3.08;2.50;;;;;;;3.32;76.12;98362.16;5095536;28;20056;-60
2021/01/25 02:59:15;;;;;;;3.80;2.92;;;;;;;3.33;76.30;98376.81;5095344;28;22600;-59
2021/01/25 03:01:43;;;;;;;3.97;2.60;;;;;;;3.23;76.21;98377.63;5095581;28;20024;-61
2021/01/25 03:04:09;;;;;;;3.60;3.03;;;;;;;3.22;76.48;98374.06;5095589;28;20020;-68
2021/01/25 03:06:35;;;;;;;3.50;2.75;;;;;;;3.20;76.29;98376.47;5095717;28;20024;-65
2021/01/25 03:09:00;;;;;;;3.22;2.85;;;;;;;3.22;76.57;98384.38;5095865;28;20025;-63
2021/01/25 03:11:26;;;;;;;3.45;3.15;;;;;;;3.24;76.46;98382.78;5095217;28;20036;-66
2021/01/25 03:13:51;;;;;;;3.75;3.38;;;;;;;3.26;76.29;98390.72;5095618;28;20035;-71
2021/01/25 03:16:17;;;;;;;4.22;3.45;;;;;;;3.34;75.78;98386.75;5095069;28;20308;-60
2021/01/25 03:18:43;;;;;;;4.53;3.38;;;;;;;3.36;75.54;98384.34;5095641;28;20028;-62
2021/01/25 03:21:08;;;;;;;4.20;3.67;;;;;;;3.35;75.95;98393.88;5095229;28;20423;-62
2021/01/25 03:23:34;;;;;;;9.25;4.38;;;;;;;3.32;75.95;98401.03;5095727;28;20065;-57
2021/01/25 03:26:00;;;;;;;9.98;5.60;;;;;;;3.29;75.58;98398.25;5094754;28;20425;-60
2021/01/25 03:28:25;;;;;;;4.93;4.03;;;;;;;3.36;75.55;98407.34;5094839;28;20024;-59
2021/01/25 03:30:50;;;;;;;5.53;4.88;;;;;;;3.42;75.02;98397.41;5095060;28;20024;-56
2021/01/25 03:33:16;;;;;;;5.13;4.32;;;;;;;3.34;75.46;98400.63;5094949;28;20028;-63
2021/01/25 03:35:42;;;;;;;6.95;4.25;;;;;;;3.29;75.41;98384.38;5095301;28;20028;-67
2021/01/25 03:38:08;;;;;;;9.13;4.55;;;;;;;3.33;75.38;98396.25;5095334;28;20020;-67
2021/01/25 03:40:34;;;;;;;5.35;4.43;;;;;;;3.21;74.92;98394.69;5094970;28;20049;-65
2021/01/25 03:42:59;;;;;;;6.00;4.63;;;;;;;3.08;75.74;98407.44;5095192;28;20024;-59
2021/01/25 03:45:25;;;;;;;7.03;4.47;;;;;;;3.18;75.97;98406.63;5094901;28;20050;-68
2021/01/25 03:47:50;;;;;;;6.55;4.60;;;;;;;3.33;74.63;98401.81;5096022;28;20029;-69
2021/01/25 03:50:15;;;;;;;4.90;4.22;;;;;;;3.28;74.69;98416.09;5098863;28;20020;-69
2021/01/25 03:52:41;;;;;;;5.95;4.60;;;;;;;3.18;75.01;98417.72;5080815;28;20060;-69
2021/01/25 03:55:08;;;;;;;7.22;4.25;;;;;;;3.13;75.53;98420.91;5080637;28;20027;-69
2021/01/25 03:57:33;;;;;;;8.27;5.85;;;;;;;3.07;75.98;98423.31;5098167;28;20598;-69
2021/01/25 03:59:58;;;;;;;6.32;4.85;;;;;;;2.99;76.16;98421.72;5098370;28;20044;-68
2021/01/25 04:02:24;;;;;;;6.47;4.28;;;;;;;2.88;75.85;98418.19;5080959;28;20077;-69
2021/01/25 04:04:49;;;;;;;6.28;4.90;;;;;;;2.79;76.77;98426.13;5098381;28;20020;-67
2021/01/25 04:07:14;;;;;;;5.95;4.88;;;;;;;2.74;76.96;98418.22;5080391;28;20028;-69
2021/01/25 04:09:40;;;;;;;7.60;5.10;;;;;;;2.67;77.14;98404.34;5097948;28;20030;-68
2021/01/25 04:12:06;;;;;;;5.40;4.32;;;;;;;2.66;78.08;98405.53;5080384;28;20062;-67
2021/01/25 04:14:31;;;;;;;5.78;4.50;;;;;;;2.66;77.72;98406.31;5098473;28;20074;-66
2021/01/25 04:16:56;;;;;;;6.65;4.95;;;;;;;2.71;77.90;98411.47;5098450;28;20418;-66
2021/01/25 04:19:22;;;;;;;4.93;3.90;;;;;;;2.65;76.86;98407.50;5098349;28;20044;-69
2021/01/25 04:21:47;;;;;;;6.88;4.65;;;;;;;2.84;77.10;98419.38;5098294;28;20088;-68
2021/01/25 04:24:12;;;;;;;7.38;4.55;;;;;;;2.77;76.35;98411.88;5080122;28;20015;-69
2021/01/25 04:26:41;;;;;;;5.05;3.85;;;;;;;2.78;76.47;98422.56;5097837;28;20027;-68
2021/01/25 04:29:11;;;;;;;5.75;4.18;;;;;;;2.72;76.17;98421.38;5097634;28;20025;-64
2021/01/25 04:31:37;;;;;;;6.20;3.97;;;;;;;2.78;76.08;98422.56;5097551;28;20115;-57
2021/01/25 04:34:03;;;;;;;6.70;4.20;;;;;;;2.87;75.95;98435.22;5098095;28;20380;-57
2021/01/25 04:36:29;;;;;;;4.60;4.13;;;;;;;2.82;75.32;98427.31;5097527;28;20451;-58
2021/01/25 04:38:54;;;;;;;7.65;4.10;;;;;;;2.87;75.61;98432.47;5098102;28;20103;-57
2021/01/25 04:41:19;;;;;;;6.50;4.20;;;;;;;2.89;74.53;98443.94;5096747;28;20022;-57
2021/01/25 04:43:46;;;;;;;5.80;4.28;;;;;;;2.87;75.17;98457.44;5097588;28;20430;-68
2021/01/25 04:46:12;;;;;;;7.85;4.10;;;;;;;2.77;75.06;98453.47;5098007;28;20281;-58
2021/01/25 04:48:41;;;;;;;5.57;3.80;;;;;;;2.69;74.98;98468.53;5097791;28;20034;-56
2021/01/25 04:51:07;;;;;;;6.18;4.63;;;;;;;2.75;75.83;98462.22;5097531;28;20024;-61
2021/01/25 04:53:33;;;;;;;6.50;5.10;;;;;;;2.73;75.22;98467.31;5097537;28;20472;-64
2021/01/25 04:55:59;;;;;;;7.07;5.22;;;;;;;2.73;75.62;98467.31;5088926;28;20042;-59
2021/01/25 04:58:24;;;;;;;10.48;5.32;;;;;;;2.75;75.80;98470.53;5097800;28;20004;-57
2021/01/25 05:00:50;;;;;;;120.45;40.55;;;;;;;2.73;74.62;98474.84;5097135;28;20020;-66
2021/01/25 05:03:15;;;;;;;71.47;32.33;;;;;;;2.72;75.48;98479.63;5097650;28;20101;-58
2021/01/25 05:05:41;;;;;;;26.45;15.75;;;;;;;2.83;75.88;98481.63;5097549;28;20457;-58
2021/01/25 05:08:06;;;;;;;22.02;15.75;;;;;;;2.87;75.01;98485.19;5096283;28;20407;-59
2021/01/25 05:10:33;;;;;;;32.60;16.88;;;;;;;2.92;74.91;98488.34;5096802;28;20031;-59
2021/01/25 05:12:58;;;;;;;27.23;9.48;;;;;;;2.88;74.97;98487.56;5097336;28;20103;-59
2021/01/25 05:15:29;;;;;;;15.27;8.75;;;;;;;2.75;75.12;98498.28;5097199;28;20119;-60
2021/01/25 05:17:57;;;;;;;22.00;9.68;;;;;;;2.72;75.11;98501.00;5092887;28;20020;-67
2021/01/25 05:20:24;;;;;;;25.35;10.50;;;;;;;2.78;75.17;98505.00;5097345;28;20420;-59
2021/01/25 05:22:49;;;;;;;39.33;20.17;;;;;;;2.88;74.96;98506.19;5096942;28;20024;-59
2021/01/25 05:25:22;;;;;;;38.33;22.30;;;;;;;2.80;74.79;98508.16;5088355;28;20099;-69
2021/01/25 05:27:48;;;;;;;21.92;13.73;;;;;;;2.74;74.43;98515.31;5097027;28;20020;-57
2021/01/25 05:30:14;;;;;;;21.05;14.32;;;;;;;2.84;74.51;98517.28;5096887;28;20474;-59
2021/01/25 05:32:47;;;;;;;14.50;9.77;;;;;;;2.77;74.23;98512.53;5097015;28;20028;-59
2021/01/25 05:35:13;;;;;;;20.70;16.08;;;;;;;2.78;74.46;98518.88;5095310;28;20028;-58
2021/01/25 05:37:41;;;;;;;13.55;9.23;;;;;;;2.78;74.57;98516.91;5096468;28;20407;-70
2021/01/25 05:40:07;;;;;;;15.25;8.43;;;;;;;2.82;74.52;98519.66;5096858;28;20021;-68
2021/01/25 05:42:33;;;;;;;19.30;10.48;;;;;;;2.72;74.33;98514.88;5097203;28;20028;-69
2021/01/25 05:45:11;;;;;;;23.17;11.40;;;;;;;2.79;74.70;98528.78;5095286;28;20442;-69
2021/01/25 05:47:45;;;;;;;32.88;13.20;;;;;;;2.80;74.40;98533.16;5094336;28;20122;-69
2021/01/25 05:50:32;;;;;;;30.70;10.23;;;;;;;2.73;74.18;98541.44;5093798;28;20081;-70
2021/01/25 05:53:03;;;;;;;26.85;10.63;;;;;;;2.86;73.84;98541.84;5081051;28;20040;-68
2021/01/25 05:55:29;;;;;;;33.10;13.05;;;;;;;2.80;74.17;98544.25;5095266;28;20043;-69
2021/01/25 05:57:54;;;;;;;33.40;11.45;;;;;;;2.78;74.69;98550.19;5096213;28;20023;-70
2021/01/25 06:00:21;;;;;;;25.00;10.50;;;;;;;2.88;74.29;98553.34;5096349;28;20080;-69
2021/01/25 06:02:49;;;;;;;17.35;8.23;;;;;;;2.87;73.90;98563.66;5096296;28;20024;-59
2021/01/25 06:05:30;;;;;;;17.85;9.93;;;;;;;2.87;73.97;98568.41;5096513;28;20028;-60
2021/01/25 06:08:03;;;;;;;15.45;9.13;;;;;;;2.92;73.88;98576.34;5096188;28;20024;-59
2021/01/25 06:10:37;;;;;;;14.02;8.43;;;;;;;2.98;73.84;98583.06;5096202;28;20023;-59
2021/01/25 06:13:11;;;;;;;14.43;7.28;;;;;;;2.95;73.43;98593.00;5095415;28;20062;-67
2021/01/25 06:15:40;;;;;;;14.80;7.80;;;;;;;2.98;73.38;98594.97;5096399;28;20039;-64
2021/01/25 06:18:06;;;;;;;17.40;8.55;;;;;;;2.94;73.30;98602.50;5096086;28;20012;-64
2021/01/25 06:20:33;;;;;;;13.95;7.25;;;;;;;3.05;73.54;98613.63;5096010;28;20020;-65
2021/01/25 06:22:59;;;;;;;14.02;7.40;;;;;;;3.04;72.98;98623.16;5096193;28;20028;-67
2021/01/25 06:25:26;;;;;;;18.50;8.93;;;;;;;2.98;73.47;98624.72;5096277;28;20020;-65
2021/01/25 06:27:55;;;;;;;15.75;9.63;;;;;;;2.97;73.08;98640.56;5095835;28;20062;-65
2021/01/25 06:30:23;;;;;;;11.63;8.30;;;;;;;2.96;73.46;98649.28;5077859;28;20039;-59
2021/01/25 06:32:49;;;;;;;11.13;7.07;;;;;;;3.03;73.19;98646.53;5096165;28;20028;-71
2021/01/25 06:35:16;;;;;;;10.13;7.28;;;;;;;2.98;73.02;98649.69;5095407;28;20027;-64
2021/01/25 06:37:41;;;;;;;8.77;6.05;;;;;;;2.95;73.04;98654.03;5096062;28;20035;-58
2021/01/25 06:40:09;;;;;;;8.85;6.47;;;;;;;2.97;73.57;98654.44;5095642;28;20020;-66
2021/01/25 06:42:37;;;;;;;12.52;8.93;;;;;;;2.88;73.55;98658.78;5095342;28;20374;-59
2021/01/25 06:45:04;;;;;;;9.25;6.20;;;;;;;2.94;74.03;98652.47;5095462;28;20066;-61
2021/01/25 06:47:30;;;;;;;9.63;6.15;;;;;;;2.99;73.25;98665.94;5078042;28;20012;-59
2021/01/25 06:49:58;;;;;;;10.45;6.25;;;;;;;2.97;73.57;98654.44;5095401;28;20046;-59
2021/01/25 06:52:27;;;;;;;7.20;5.65;;;;;;;2.96;73.55;98666.72;5095433;28;20490;-60
2021/01/25 06:54:58;;;;;;;9.60;5.93;;;;;;;3.00;73.55;98670.31;5096108;28;20067;-57
2021/01/25 06:57:25;;;;;;;;;;;;;;;2.92;73.09;98673.47;5095867;28;20111;-59
2021/01/25 06:59:51;;;;;;;11.38;7.85;;;;;;;2.95;73.54;98675.44;5095653;28;19957;-59
2021/01/25 07:02:19;;;;;;;10.73;6.68;;;;;;;2.96;73.56;98690.91;5095912;28;20039;-59
2021/01/25 07:04:50;;;;;;;9.82;6.30;;;;;;;2.92;73.25;98693.69;5095145;28;20028;-59
2021/01/25 07:07:29;;;;;;;11.50;6.75;;;;;;;3.00;73.18;98694.50;5095542;28;20090;-59
2021/01/25 07:09:57;;;;;;;8.35;6.15;;;;;;;3.00;73.66;98694.50;5095167;28;20019;-70
2021/01/25 07:12:24;;;;;;;10.13;6.07;;;;;;;3.18;72.75;98695.31;5095340;28;20022;-59
2021/01/25 07:14:50;;;;;;;11.75;6.03;;;;;;;3.19;72.72;98707.22;5095457;28;20020;-59
2021/01/25 07:17:16;;;;;;;13.00;7.28;;;;;;;3.20;72.74;98706.03;5095588;28;20065;-69
2021/01/25 07:19:43;;;;;;;9.10;6.13;;;;;;;3.24;72.89;98715.94;5095190;28;20109;-70
2021/01/25 07:22:09;;;;;;;19.20;7.90;;;;;;;3.21;72.45;98713.97;5095452;28;20071;-67
2021/01/25 07:24:36;;;;;;;21.38;11.38;;;;;;;3.30;72.60;98710.81;5099720;28;20051;-69
2021/01/25 07:27:02;;;;;;;11.32;7.13;;;;;;;3.30;72.09;98714.41;5098497;28;20028;-67
2021/01/25 07:29:28;;;;;;;10.45;7.57;;;;;;;3.27;72.24;98712.38;5099445;28;20024;-69
2021/01/25 07:31:55;;;;;;;16.75;9.57;;;;;;;3.26;72.59;98712.78;5099413;28;20427;-57
2021/01/25 07:34:21;;;;;;;13.70;8.48;;;;;;;3.35;72.93;98719.56;5099044;28;20111;-58
2021/01/25 07:36:47;;;;;;;13.63;8.07;;;;;;;3.38;72.58;98727.09;5099351;28;20111;-59
2021/01/25 07:39:14;;;;;;;13.95;8.85;;;;;;;3.38;72.10;98724.31;5099546;28;20020;-59
2021/01/25 07:41:41;;;;;;;17.75;9.38;;;;;;;3.40;72.54;98732.25;5099335;28;20047;-59
2021/01/25 07:44:07;;;;;;;26.00;12.10;;;;;;;3.40;72.15;98735.81;5098992;28;20044;-59
2021/01/25 07:46:33;;;;;;;33.60;17.67;;;;;;;3.41;72.13;98737.41;5099494;28;20028;-59
2021/01/25 07:48:59;;;;;;;17.58;10.25;;;;;;;3.44;72.13;98740.59;5098645;28;20016;-59
2021/01/25 07:51:29;;;;;;;12.02;8.23;;;;;;;3.44;71.75;98749.72;5099248;28;20028;-50
2021/01/25 07:53:56;;;;;;;15.65;8.93;;;;;;;3.42;72.46;98754.88;5099233;28;20020;-59
2021/01/25 07:56:24;;;;;;;16.65;10.35;;;;;;;3.48;72.58;98752.50;5098872;28;20063;-59
2021/01/25 07:58:50;;;;;;;17.02;8.80;;;;;;;3.48;71.87;98764.41;5099005;28;20079;-63
2021/01/25 08:01:27;;;;;;;16.13;8.88;;;;;;;3.48;72.61;98760.81;5098554;28;20415;-65
2021/01/25 08:03:58;;;;;;;23.77;11.60;;;;;;;3.45;72.37;98765.19;5099183;28;20483;-64
2021/01/25 08:06:25;;;;;;;17.20;9.60;;;;;;;3.46;72.54;98765.97;5098540;28;20020;-63
2021/01/25 08:08:51;;;;;;;14.02;8.82;;;;;;;3.48;72.80;98769.16;5098661;28;20036;-67
2021/01/25 08:11:19;;;;;;;15.18;9.20;;;;;;;3.49;72.44;98773.53;5098411;28;20024;-67
2021/01/25 08:13:56;;;;;;;17.58;10.13;;;;;;;3.47;72.66;98773.91;5098619;28;20024;-57
2021/01/25 08:16:25;;;;;;;15.57;9.00;;;;;;;3.46;72.44;98774.31;5098048;28;20038;-66
2021/01/25 08:19:08;;;;;;;13.15;9.10;;;;;;;3.53;72.25;98777.09;5098650;28;20020;-68
2021/01/25 08:21:55;;;;;;;15.13;9.55;;;;;;;3.54;72.18;98773.91;5080309;28;20020;-65
2021/01/25 08:24:20;;;;;;;12.55;8.48;;;;;;;3.64;71.92;98783.47;5098433;28;20030;-68
2021/01/25 08:26:46;;;;;;;14.65;6.82;;;;;;;3.67;71.60;98789.03;5098009;28;20020;-69
2021/01/25 08:29:26;;;;;;;15.95;7.10;;;;;;;3.68;71.76;98778.72;5098140;28;20384;-69
2021/01/25 08:31:52;;;;;;;11.68;7.18;;;;;;;3.70;71.84;98784.66;5080031;28;20016;-68
2021/01/25 08:34:28;;;;;;;8.75;5.43;;;;;;;3.78;71.33;98793.78;5097253;28;20312;-59
2021/01/25 08:36:56;;;;;;;13.73;6.50;;;;;;;3.80;71.54;98792.22;5098231;28;20016;-58
2021/01/25 08:39:30;;;;;;;10.55;6.75;;;;;;;3.75;71.60;98787.03;5097996;28;20024;-59
2021/01/25 08:41:57;;;;;;;13.80;6.45;;;;;;;3.74;71.63;98779.91;5097955;28;20376;-55
2021/01/25 08:44:23;;;;;;;10.32;5.82;;;;;;;3.68;71.72;98778.72;5097942;28;20043;-58
2021/01/25 08:46:49;;;;;;;11.07;7.07;;;;;;;3.67;71.85;98783.47;5097533;28;20098;-70
2021/01/25 08:49:17;;;;;;;12.82;7.60;;;;;;;3.69;72.31;98785.84;5097996;28;20063;-70
2021/01/25 08:51:59;;;;;;;14.95;9.70;;;;;;;3.72;72.50;98787.84;5098119;28;20036;-70
2021/01/25 08:54:31;;;;;;;12.68;7.60;;;;;;;3.71;72.20;98794.59;5085751;28;20560;-70
2021/01/25 08:56:58;;;;;;;13.02;7.20;;;;;;;3.72;71.85;98788.63;5079735;28;20101;-70
2021/01/25 08:59:38;;;;;;;10.85;6.60;;;;;;;3.73;72.26;98786.66;5097525;28;20020;-70
2021/01/25 09:02:21;;;;;;;14.75;7.68;;;;;;;3.79;71.32;98787.84;5097785;28;20030;-59
2021/01/25 09:04:53;;;;;;;11.35;7.53;;;;;;;3.78;72.42;98789.03;5097443;28;20024;-60
2021/01/25 09:07:22;;;;;;;12.05;7.20;;;;;;;3.81;72.27;98807.69;5097712;28;20020;-59
2021/01/25 09:09:48;;;;;;;12.85;7.55;;;;;;;3.82;71.66;98795.38;5097430;28;20043;-59
2021/01/25 09:12:20;;;;;;;22.52;10.30;;;;;;;3.85;71.73;98800.19;5097206;28;20079;-59
2021/01/25 09:14:47;;;;;;;33.05;17.35;;;;;;;3.84;71.98;98804.16;5079234;28;20161;-59
2021/01/25 09:17:13;;;;;;;18.50;10.98;;;;;;;3.81;72.14;98793.00;5097339;28;20430;-63
2021/01/25 09:19:39;;;;;;;22.80;13.02;;;;;;;3.85;72.41;98793.81;5097165;28;20107;-63
2021/01/25 09:22:06;;;;;;;31.15;19.42;;;;;;;3.90;72.51;98808.13;5097391;28;20020;-59
2021/01/25 09:24:32;;;;;;;26.15;15.65;;;;;;;3.89;73.11;98800.97;5097403;28;20107;-60
2021/01/25 09:26:57;;;;;;;18.58;11.60;;;;;;;3.94;72.95;98800.56;5097251;28;20071;-58
2021/01/25 09:29:22;;;;;;;19.20;11.15;;;;;;;4.01;72.84;98800.56;5096958;28;20032;-59
2021/01/25 09:31:48;;;;;;;19.92;10.60;;;;;;;4.14;72.28;98805.75;5097216;28;20031;-59
2021/01/25 09:34:13;;;;;;;16.23;9.80;;;;;;;4.13;72.62;98804.94;5097143;28;20024;-59
2021/01/25 09:36:38;;;;;;;17.60;7.63;;;;;;;4.21;72.94;98805.72;5097049;28;20023;-60
2021/01/25 09:39:06;;;;;;;18.30;8.63;;;;;;;4.26;72.79;98810.88;5096936;28;20416;-59
2021/01/25 09:41:31;;;;;;;17.85;9.32;;;;;;;4.28;73.17;98802.94;5096903;28;20063;-59
2021/01/25 09:43:57;;;;;;;15.18;8.75;;;;;;;4.30;73.31;98803.31;5096451;28;20079;-59
2021/01/25 09:46:22;;;;;;;14.38;8.38;;;;;;;4.39;73.34;98792.59;5096738;28;20314;-58
2021/01/25 09:48:48;;;;;;;13.07;8.45;;;;;;;4.51;73.63;98791.38;5096628;28;20051;-55
2021/01/25 09:51:13;;;;;;;18.52;9.55;;;;;;;4.68;73.69;98801.69;5096670;28;20032;-49
2021/01/25 09:53:39;;;;;;;14.40;7.93;;;;;;;4.90;72.83;98791.25;5096556;28;20070;-66
2021/01/25 09:56:04;;;;;;;14.85;8.75;;;;;;;5.05;72.50;98795.56;5096700;28;20025;-60
2021/01/25 09:58:32;;;;;;;12.82;7.97;;;;;;;5.15;72.34;98794.72;5096266;28;20016;-62
2021/01/25 10:00:57;;;;;;;11.27;7.82;;;;;;;5.21;71.00;98786.75;5096562;28;20027;-59
2021/01/25 10:03:22;;;;;;;13.23;8.05;;;;;;;5.18;71.05;98780.00;5096562;28;20030;-59
2021/01/25 10:05:48;;;;;;;11.95;7.22;;;;;;;5.24;71.04;98778.38;5096456;28;20020;-59
2021/01/25 10:08:13;;;;;;;13.52;7.88;;;;;;;5.30;71.96;98781.53;5096234;28;20115;-59
2021/01/25 10:10:38;;;;;;;17.17;8.55;;;;;;;5.36;71.37;98767.97;5096411;28;20077;-59
2021/01/25 10:13:05;;;;;;;16.02;9.63;;;;;;;5.38;71.10;98765.56;5095722;28;20012;-59
2021/01/25 10:15:33;;;;;;;17.90;10.10;;;;;;;5.43;71.21;98776.28;5096462;28;20051;-59
2021/01/25 10:17:59;;;;;;;14.13;8.43;;;;;;;5.49;70.98;98777.47;5096546;28;20020;-70
2021/01/25 10:20:24;;;;;;;12.15;8.60;;;;;;;5.57;70.74;98771.41;5096159;28;20023;-70
2021/01/25 10:22:49;;;;;;;19.92;9.25;;;;;;;5.64;71.52;98767.78;5078333;28;20343;-69
2021/01/25 10:25:15;;;;;;;16.98;9.35;;;;;;;5.71;71.38;98762.16;5094945;28;20103;-70
2021/01/25 10:27:40;;;;;;;19.35;8.90;;;;;;;5.81;71.11;98758.50;5095983;28;20055;-70
2021/01/25 10:30:09;;;;;;;17.05;10.27;;;;;;;5.89;69.81;98757.28;5077664;28;20099;-70
2021/01/25 10:32:35;;;;;;;20.42;10.18;;;;;;;5.91;70.01;98758.84;5078141;28;20054;-58
2021/01/25 10:35:00;;;;;;;20.17;11.00;;;;;;;5.96;71.07;98758.41;5096082;28;20047;-59
2021/01/25 10:37:26;;;;;;;16.73;9.00;;;;;;;6.02;69.26;98759.53;5096078;28;20350;-59
2021/01/25 10:39:51;;;;;;;17.42;10.07;;;;;;;6.11;69.61;98763.47;5095896;28;20020;-59
2021/01/25 10:42:17;;;;;;;17.52;10.95;;;;;;;6.19;69.23;98773.34;5095590;28;20020;-59
2021/01/25 10:44:42;;;;;;;15.15;9.95;;;;;;;6.20;69.80;98776.94;5095715;28;20074;-59
2021/01/25 10:47:07;;;;;;;14.35;8.95;;;;;;;6.19;69.11;98772.56;5095712;28;20032;-59
2021/01/25 10:49:33;;;;;;;16.63;9.18;;;;;;;6.19;69.78;98772.56;5095916;28;20179;-59
2021/01/25 10:51:59;;;;;;;18.95;9.63;;;;;;;6.18;69.67;98768.19;5095776;28;20307;-58
2021/01/25 10:54:25;;;;;;;18.58;10.95;;;;;;;6.15;69.65;98769.00;5095938;28;20380;-59
2021/01/25 10:56:51;;;;;;;14.85;8.88;;;;;;;6.02;69.80;98765.91;5095295;28;20427;-59
2021/01/25 10:59:16;;;;;;;21.52;10.43;;;;;;;6.00;69.06;98771.13;5095237;28;20097;-59
2021/01/25 11:01:41;;;;;;;11.40;8.05;;;;;;;6.03;68.67;98769.53;5095658;28;20074;-59
2021/01/25 11:04:07;;;;;;;14.20;9.25;;;;;;;5.99;69.04;98761.16;5095577;28;20077;-64
2021/01/25 11:06:32;;;;;;;13.98;8.18;;;;;;;5.94;68.68;98767.19;5095579;28;20077;-62
2021/01/25 11:08:57;;;;;;;15.82;9.15;;;;;;;6.00;68.67;98756.38;5095495;28;20060;-59
2021/01/25 11:11:23;;;;;;;10.73;7.80;;;;;;;6.04;69.54;98762.75;5095076;28;20077;-58
2021/01/25 11:13:48;;;;;;;18.80;11.43;;;;;;;6.11;69.96;98765.47;5095640;28;20343;-59
2021/01/25 11:16:13;;;;;;;14.77;8.40;;;;;;;6.15;69.01;98761.44;5095163;28;20031;-59
2021/01/25 11:18:39;;;;;;;19.50;12.57;;;;;;;6.23;69.33;98758.56;5095571;28;20523;-59
2021/01/25 11:21:04;;;;;;;15.32;9.98;;;;;;;6.34;68.64;98759.28;5095692;28;20031;-59
2021/01/25 11:23:30;;;;;;;12.40;9.07;;;;;;;6.40;68.12;98768.78;5095309;28;20408;-57
2021/01/25 11:25:56;;;;;;;16.65;9.18;;;;;;;6.43;68.55;98765.94;5077345;28;20358;-59
2021/01/25 11:28:22;;;;;;;16.60;9.77;;;;;;;6.55;69.73;98775.78;5095431;28;20027;-58
2021/01/25 11:30:47;;;;;;;18.95;10.43;;;;;;;6.63;67.37;98782.09;5095749;28;20027;-63
2021/01/25 11:33:13;;;;;;;16.85;9.27;;;;;;;6.57;67.14;98781.75;5094997;28;20099;-64
2021/01/25 11:35:38;;;;;;;13.23;8.50;;;;;;;6.61;66.89;98787.31;5100096;28;20023;-61